createdAt,value
2022-11-04T00:01:32.730Z,19.44
2022-11-04T00:04:00.194Z,19.44
2022-11-04T00:06:27.573Z,19.43
2022-11-04T00:08:56.496Z,19.45
2022-11-04T00:11:43.667Z,19.43
2022-11-04T00:14:12.032Z,19.44
2022-11-04T00:16:58.338Z,19.45
2022-11-04T00:19:25.818Z,19.45
2022-11-04T00:22:15.042Z,19.42
2022-11-04T00:24:42.412Z,19.43
2022-11-04T00:27:29.375Z,19.42
2022-11-04T00:29:57.016Z,19.39
2022-11-04T00:32:42.758Z,19.38
2022-11-04T00:35:10.640Z,19.36
2022-11-04T00:37:40.787Z,19.34
2022-11-04T00:40:09.145Z,19.36
2022-11-04T00:42:36.483Z,19.37
2022-11-04T00:45:04.459Z,19.40
2022-11-04T00:47:31.842Z,19.39
2022-11-04T00:49:59.307Z,19.35
2022-11-04T00:52:26.718Z,19.37
2022-11-04T00:54:54.104Z,19.36
2022-11-04T00:57:23.328Z,19.38
2022-11-04T00:59:50.704Z,19.37
2022-11-04T01:02:18.270Z,19.38
2022-11-04T01:04:47.019Z,19.38
2022-11-04T01:07:16.953Z,19.39
2022-11-04T01:09:44.344Z,19.39
2022-11-04T01:12:11.717Z,19.40
2022-11-04T01:14:39.115Z,19.39
2022-11-04T01:17:07.332Z,19.39
2022-11-04T01:19:34.691Z,19.37
2022-11-04T01:22:02.576Z,19.38
2022-11-04T01:24:29.969Z,19.38
2022-11-04T01:27:00.250Z,19.38
2022-11-04T01:29:27.604Z,19.37
2022-11-04T01:31:54.998Z,19.40
2022-11-04T01:34:22.467Z,19.40
2022-11-04T01:36:49.871Z,19.42
2022-11-04T01:39:17.283Z,19.40
2022-11-04T01:41:47.436Z,19.38
2022-11-04T01:44:42.376Z,19.40
2022-11-04T01:47:27.635Z,19.43
2022-11-04T01:50:00.858Z,19.42
2022-11-04T01:52:34.543Z,19.43
2022-11-04T01:55:06.527Z,19.43
2022-11-04T01:57:35.954Z,19.42
2022-11-04T02:00:05.302Z,19.37
2022-11-04T02:02:45.555Z,19.39
2022-11-04T02:05:13.119Z,19.40
2022-11-04T02:07:40.523Z,19.41
2022-11-04T02:10:08.251Z,19.43
2022-11-04T02:12:50.723Z,19.42
2022-11-04T02:15:41.252Z,19.42
2022-11-04T02:18:14.182Z,19.37
2022-11-04T02:21:05.801Z,19.37
2022-11-04T02:23:57.483Z,19.38
2022-11-04T02:26:56.104Z,19.37
2022-11-04T02:29:27.611Z,19.42
2022-11-04T02:32:04.691Z,19.39
2022-11-04T02:34:50.044Z,19.38
2022-11-04T02:37:24.812Z,19.40
2022-11-04T02:40:03.704Z,19.39
2022-11-04T02:42:38.142Z,19.42
2022-11-04T02:45:14.467Z,19.45
2022-11-04T02:47:50.785Z,19.47
2022-11-04T02:50:24.007Z,19.45
2022-11-04T02:52:52.018Z,19.45
2022-11-04T02:55:25.093Z,19.41
2022-11-04T02:57:53.534Z,19.34
2022-11-04T03:00:21.586Z,19.39
2022-11-04T03:03:00.883Z,19.40
2022-11-04T03:05:31.885Z,19.42
2022-11-04T03:08:01.757Z,19.42
2022-11-04T03:10:39.403Z,19.43
2022-11-04T03:13:12.758Z,19.44
2022-11-04T03:15:40.769Z,19.44
2022-11-04T03:18:11.660Z,19.43
2022-11-04T03:20:39.094Z,19.44
2022-11-04T03:23:06.606Z,19.40
2022-11-04T03:25:37.462Z,19.41
2022-11-04T03:28:15.657Z,19.43
2022-11-04T03:30:43.909Z,19.42
2022-11-04T03:33:31.970Z,19.41
2022-11-04T03:35:59.368Z,19.42
2022-11-04T03:38:26.769Z,19.43
2022-11-04T03:40:54.144Z,19.42
2022-11-04T03:43:24.315Z,19.41
2022-11-04T03:45:54.964Z,19.44
2022-11-04T03:48:22.429Z,19.46
2022-11-04T03:50:50.960Z,19.49
2022-11-04T03:53:23.293Z,19.51
2022-11-04T03:56:21.032Z,19.54
2022-11-04T03:59:23.394Z,19.52
2022-11-04T04:02:01.734Z,19.52
2022-11-04T04:04:33.773Z,19.53
2022-11-04T04:07:18.767Z,19.54
2022-11-04T04:09:50.217Z,19.56
2022-11-04T04:12:38.417Z,19.54
2022-11-04T04:15:20.051Z,19.55
2022-11-04T04:17:54.035Z,19.58
2022-11-04T04:20:23.503Z,19.59
2022-11-04T04:22:54.500Z,19.58
2022-11-04T04:25:40.475Z,19.60
2022-11-04T04:28:08.208Z,19.62
2022-11-04T04:30:35.806Z,19.62
2022-11-04T04:33:11.644Z,19.61
2022-11-04T04:35:51.027Z,19.63
2022-11-04T04:38:41.058Z,19.63
2022-11-04T04:41:40.175Z,19.64
2022-11-04T04:44:45.413Z,19.63
2022-11-04T04:47:23.263Z,19.62
2022-11-04T04:49:57.605Z,19.64
2022-11-04T04:52:45.805Z,19.62
2022-11-04T04:55:16.006Z,19.62
2022-11-04T04:57:44.957Z,19.65
2022-11-04T05:00:19.730Z,19.63
2022-11-04T05:02:48.171Z,19.66
2022-11-04T05:07:48.079Z,19.67
2022-11-04T05:10:16.153Z,19.68
2022-11-04T05:13:02.294Z,19.67
2022-11-04T05:15:29.913Z,19.67
2022-11-04T05:17:58.784Z,19.66
2022-11-04T05:20:26.367Z,19.67
2022-11-04T05:22:54.705Z,19.66
2022-11-04T05:25:22.055Z,19.67
2022-11-04T05:27:49.400Z,19.68
2022-11-04T05:30:17.114Z,19.64
2022-11-04T05:32:45.067Z,19.67
2022-11-04T05:35:12.456Z,19.67
2022-11-04T05:37:42.472Z,19.66
2022-11-04T05:40:10.459Z,19.67
2022-11-04T05:42:37.963Z,19.67
2022-11-04T05:45:05.651Z,19.69
2022-11-04T05:47:33.073Z,19.67
2022-11-04T05:50:00.447Z,19.68
2022-11-04T05:52:27.848Z,19.65
2022-11-04T05:54:55.252Z,19.67
2022-11-04T05:57:25.575Z,19.67
2022-11-04T05:59:52.981Z,19.68
2022-11-04T06:02:20.455Z,19.68
2022-11-04T06:04:47.927Z,19.69
2022-11-04T06:07:15.347Z,19.68
2022-11-04T06:09:42.788Z,19.72
2022-11-04T06:12:12.236Z,19.71
2022-11-04T06:14:39.643Z,19.72
2022-11-04T06:17:07.105Z,19.72
2022-11-04T06:19:34.458Z,19.72
2022-11-04T06:22:05.643Z,19.72
2022-11-04T06:24:33.067Z,19.72
2022-11-04T06:27:03.564Z,19.71
2022-11-04T06:29:30.931Z,19.72
2022-11-04T06:31:58.331Z,19.73
2022-11-04T06:34:25.734Z,19.73
2022-11-04T06:36:53.084Z,19.72
2022-11-04T06:39:20.574Z,19.73
2022-11-04T06:41:50.574Z,19.72
2022-11-04T06:44:19.275Z,19.73
2022-11-04T06:46:47.731Z,19.73
2022-11-04T06:49:17.638Z,19.71
2022-11-04T06:51:45.109Z,19.73
2022-11-04T06:54:12.652Z,19.76
2022-11-04T06:56:40.037Z,19.75
2022-11-04T06:59:08.789Z,19.72
2022-11-04T07:01:36.807Z,19.71
2022-11-04T07:04:07.405Z,19.67
2022-11-04T07:06:37.283Z,19.67
2022-11-04T07:09:07.140Z,19.63
2022-11-04T07:11:34.629Z,19.64
2022-11-04T07:14:02.660Z,19.62
2022-11-04T07:16:30.150Z,19.67
2022-11-04T07:18:57.564Z,19.67
2022-11-04T07:21:25.033Z,19.63
2022-11-04T07:23:52.499Z,19.61
2022-11-04T07:26:19.949Z,19.61
2022-11-04T07:28:50.028Z,19.57
2022-11-04T07:31:18.129Z,19.61
2022-11-04T07:33:49.990Z,19.62
2022-11-04T07:36:17.933Z,19.64
2022-11-04T07:38:45.498Z,19.65
2022-11-04T07:41:14.004Z,19.64
2022-11-04T07:43:41.430Z,19.66
2022-11-04T07:46:11.343Z,19.65
2022-11-04T07:48:38.884Z,19.67
2022-11-04T07:51:07.824Z,19.68
2022-11-04T07:53:35.388Z,19.66
2022-11-04T07:56:06.591Z,19.65
2022-11-04T07:58:34.105Z,19.64
2022-11-04T08:01:07.044Z,19.65
2022-11-04T08:03:35.437Z,19.63
2022-11-04T08:06:04.157Z,19.62
2022-11-04T08:08:31.610Z,19.62
2022-11-04T08:11:01.142Z,19.62
2022-11-04T08:13:31.839Z,19.60
2022-11-04T08:16:03.700Z,19.58
2022-11-04T08:18:32.124Z,19.57
2022-11-04T08:20:59.619Z,19.55
2022-11-04T08:23:26.998Z,19.59
2022-11-04T08:25:54.391Z,19.58
2022-11-04T08:28:24.855Z,19.63
2022-11-04T08:30:59.402Z,19.61
2022-11-04T08:33:27.084Z,19.64
2022-11-04T08:35:54.782Z,19.65
2022-11-04T08:38:25.406Z,19.64
2022-11-04T08:40:58.580Z,19.64
2022-11-04T08:43:27.172Z,19.62
2022-11-04T08:45:54.614Z,19.60
2022-11-04T08:48:22.130Z,19.59
2022-11-04T08:50:53.679Z,19.57
2022-11-04T08:53:21.136Z,19.58
2022-11-04T08:55:48.794Z,19.57
2022-11-04T08:58:16.391Z,19.57
2022-11-04T09:00:44.486Z,19.57
2022-11-04T09:03:14.852Z,19.59
2022-11-04T09:05:45.812Z,19.60
2022-11-04T09:08:14.193Z,19.59
2022-11-04T09:10:45.411Z,19.60
2022-11-04T09:13:13.064Z,19.60
2022-11-04T09:15:40.496Z,19.60
2022-11-04T09:18:10.733Z,19.60
2022-11-04T09:20:42.226Z,19.58
2022-11-04T09:23:10.159Z,19.59
2022-11-04T09:25:37.896Z,19.60
2022-11-04T09:28:05.277Z,19.61
2022-11-04T09:30:32.890Z,19.61
2022-11-04T09:33:00.359Z,19.61
2022-11-04T09:35:28.144Z,19.60
2022-11-04T09:37:55.636Z,19.58
2022-11-04T09:40:24.344Z,19.58
2022-11-04T09:43:10.506Z,19.61
2022-11-04T09:45:39.916Z,19.62
2022-11-04T09:48:08.929Z,19.63
2022-11-04T09:50:57.648Z,19.61
2022-11-04T09:54:00.971Z,19.63
2022-11-04T09:56:30.409Z,19.62
2022-11-04T09:58:57.803Z,19.64
2022-11-04T10:01:54.367Z,19.63
2022-11-04T10:04:31.747Z,19.63
2022-11-04T10:07:11.402Z,19.64
2022-11-04T10:09:48.178Z,19.62
2022-11-04T10:12:28.566Z,19.63
2022-11-04T10:15:11.102Z,19.64
2022-11-04T10:18:03.793Z,19.62
2022-11-04T10:20:44.089Z,19.63
2022-11-04T10:23:24.207Z,19.62
2022-11-04T10:26:14.748Z,19.63
2022-11-04T10:28:44.858Z,19.62
2022-11-04T10:31:14.257Z,19.62
2022-11-04T10:33:50.885Z,19.63
2022-11-04T10:36:18.280Z,19.61
2022-11-04T10:38:52.612Z,19.62
2022-11-04T10:41:32.138Z,19.66
2022-11-04T10:44:34.825Z,19.65
2022-11-04T10:47:11.862Z,19.63
2022-11-04T10:50:29.822Z,19.61
2022-11-04T10:53:11.399Z,19.62
2022-11-04T10:55:59.787Z,19.62
2022-11-04T10:58:39.861Z,19.59
2022-11-04T11:01:27.096Z,19.60
2022-11-04T11:03:56.123Z,19.60
2022-11-04T11:06:33.803Z,19.59
2022-11-04T11:09:18.503Z,19.58
2022-11-04T11:11:49.479Z,19.63
2022-11-04T11:14:40.773Z,19.62
2022-11-04T11:17:19.907Z,19.61
2022-11-04T11:19:52.928Z,19.60
2022-11-04T11:22:36.289Z,19.58
2022-11-04T11:25:12.822Z,19.58
2022-11-04T11:27:41.169Z,19.58
2022-11-04T11:30:19.410Z,19.59
2022-11-04T11:32:53.408Z,19.57
2022-11-04T11:35:29.710Z,19.58
2022-11-04T11:37:57.627Z,19.59
2022-11-04T11:40:25.174Z,19.58
2022-11-04T11:42:52.536Z,19.61
2022-11-04T11:45:20.144Z,19.58
2022-11-04T11:47:52.442Z,19.59
2022-11-04T11:50:24.276Z,19.59
2022-11-04T11:53:15.340Z,19.60
2022-11-04T11:55:51.272Z,19.59
2022-11-04T12:01:24.054Z,19.60
2022-11-04T12:10:00.965Z,19.61
2022-11-04T12:12:40.694Z,19.60
2022-11-04T12:15:30.149Z,19.60
2022-11-04T12:18:28.537Z,19.59
2022-11-04T12:21:03.917Z,19.59
2022-11-04T12:23:54.979Z,19.60
2022-11-04T12:26:41.514Z,19.60
2022-11-04T12:29:17.649Z,19.60
2022-11-04T12:32:16.808Z,19.60
2022-11-04T12:35:25.771Z,19.62
2022-11-04T12:37:58.069Z,19.59
2022-11-04T12:40:26.775Z,19.61
2022-11-04T12:43:06.513Z,19.62
2022-11-04T12:45:57.156Z,19.61
2022-11-04T12:48:38.349Z,19.63
2022-11-04T12:51:22.535Z,19.62
2022-11-04T12:53:58.772Z,19.64
2022-11-04T12:56:44.168Z,19.63
2022-11-04T12:59:14.141Z,19.64
2022-11-04T13:01:53.433Z,19.63
2022-11-04T13:04:25.843Z,19.63
2022-11-04T13:07:01.616Z,19.64
2022-11-04T13:09:28.878Z,19.64
2022-11-04T13:12:17.354Z,19.64
2022-11-04T13:14:56.603Z,19.63
2022-11-04T13:17:33.176Z,19.62
2022-11-04T13:20:14.585Z,19.61
2022-11-04T13:22:50.076Z,19.60
2022-11-04T13:25:28.207Z,19.64
2022-11-04T13:27:55.723Z,19.62
2022-11-04T13:30:39.353Z,19.60
2022-11-04T13:33:18.983Z,19.59
2022-11-04T13:35:49.235Z,19.61
2022-11-04T13:38:21.335Z,19.58
2022-11-04T13:40:56.133Z,19.59
2022-11-04T13:43:39.142Z,19.59
2022-11-04T13:46:19.054Z,19.57
2022-11-04T13:49:02.858Z,19.59
2022-11-04T13:51:44.452Z,19.61
2022-11-04T13:54:25.289Z,19.59
2022-11-04T13:57:03.531Z,19.61
2022-11-04T13:59:31.210Z,19.62
2022-11-04T14:02:13.849Z,19.63
2022-11-04T14:04:42.263Z,19.62
2022-11-04T14:07:17.959Z,19.62
2022-11-04T14:09:53.688Z,19.63
2022-11-04T14:12:28.835Z,19.63
2022-11-04T14:15:04.511Z,19.61
2022-11-04T14:17:34.924Z,19.61
2022-11-04T14:20:06.028Z,19.63
2022-11-04T14:22:38.818Z,19.63
2022-11-04T14:25:23.262Z,19.64
2022-11-04T14:27:55.945Z,19.64
2022-11-04T14:30:50.820Z,19.63
2022-11-04T14:33:39.841Z,19.65
2022-11-04T14:36:20.598Z,19.64
2022-11-04T14:39:20.238Z,19.64
2022-11-04T14:41:50.745Z,19.64
2022-11-04T14:44:23.903Z,19.64
2022-11-04T14:46:52.643Z,19.66
2022-11-04T14:49:45.205Z,19.65
2022-11-04T14:52:25.159Z,19.65
2022-11-04T14:54:57.633Z,19.66
2022-11-04T14:57:25.136Z,19.66
2022-11-04T14:59:53.878Z,19.65
2022-11-04T15:02:23.296Z,19.65
2022-11-04T15:04:54.140Z,19.65
2022-11-04T15:07:31.695Z,19.66
2022-11-04T15:09:59.067Z,19.62
2022-11-04T15:12:45.042Z,19.64
2022-11-04T15:15:29.572Z,19.64
2022-11-04T15:18:00.538Z,19.68
2022-11-04T15:20:30.531Z,19.67
2022-11-04T15:22:59.086Z,19.67
2022-11-04T15:25:27.594Z,19.65
2022-11-04T15:27:55.917Z,19.65
2022-11-04T15:30:27.445Z,19.64
2022-11-04T15:32:54.726Z,19.64
2022-11-04T15:35:22.285Z,19.63
2022-11-04T15:37:49.688Z,19.60
2022-11-04T15:40:17.757Z,19.60
2022-11-04T15:42:45.513Z,19.60
2022-11-04T15:45:22.153Z,19.60
2022-11-04T15:47:49.810Z,19.61
2022-11-04T15:50:24.466Z,19.58
2022-11-04T15:52:54.472Z,19.59
2022-11-04T15:55:23.919Z,19.60
2022-11-04T15:57:51.739Z,19.60
2022-11-04T16:00:22.783Z,19.59
2022-11-04T16:02:57.448Z,19.60
2022-11-04T16:05:35.592Z,19.60
2022-11-04T16:08:21.832Z,19.58
2022-11-04T16:10:49.761Z,19.56
2022-11-04T16:13:17.190Z,19.58
2022-11-04T16:15:53.515Z,19.55
2022-11-04T16:18:27.841Z,19.55
2022-11-04T16:20:55.160Z,19.57
2022-11-04T16:23:26.333Z,19.58
2022-11-04T16:25:58.254Z,19.54
2022-11-04T16:28:28.305Z,19.53
2022-11-04T16:31:02.526Z,19.52
2022-11-04T16:33:29.904Z,19.50
2022-11-04T16:35:57.383Z,19.50
2022-11-04T16:38:24.743Z,19.48
2022-11-04T16:40:55.133Z,19.48
2022-11-04T16:43:22.579Z,19.48
2022-11-04T16:45:53.751Z,19.48
2022-11-04T16:48:21.934Z,19.48
2022-11-04T16:50:49.345Z,19.46
2022-11-04T16:53:16.704Z,19.45
2022-11-04T16:55:44.108Z,19.43
2022-11-04T16:58:16.119Z,19.43
2022-11-04T17:00:43.577Z,19.44
2022-11-04T17:03:21.067Z,19.41
2022-11-04T17:05:52.104Z,19.40
2022-11-04T17:08:19.471Z,19.41
2022-11-04T17:10:46.863Z,19.40
2022-11-04T17:13:14.230Z,19.40
2022-11-04T17:15:41.653Z,19.41
2022-11-04T17:18:16.836Z,19.40
2022-11-04T17:20:54.764Z,19.39
2022-11-04T17:23:22.202Z,19.41
2022-11-04T17:25:49.636Z,19.40
2022-11-04T17:28:17.032Z,19.38
2022-11-04T17:30:44.759Z,19.37
2022-11-04T17:33:13.693Z,19.35
2022-11-04T17:35:41.910Z,19.35
2022-11-04T17:38:15.278Z,19.36
2022-11-04T17:41:01.229Z,19.38
2022-11-04T17:43:47.279Z,19.36
2022-11-04T17:46:33.175Z,19.35
2022-11-04T17:49:13.170Z,19.35
2022-11-04T17:51:43.937Z,19.34
2022-11-04T17:54:11.392Z,19.34
2022-11-04T17:56:39.174Z,19.32
2022-11-04T17:59:06.822Z,19.33
2022-11-04T18:01:35.098Z,19.30
2022-11-04T18:04:02.712Z,19.31
2022-11-04T18:06:31.287Z,19.32
2022-11-04T18:08:59.251Z,19.32
2022-11-04T18:11:47.144Z,19.31
2022-11-04T18:14:17.041Z,19.32
2022-11-04T18:16:47.083Z,19.32
2022-11-04T18:19:14.887Z,19.32
2022-11-04T18:21:42.244Z,19.30
2022-11-04T18:24:09.777Z,19.31
2022-11-04T18:26:37.202Z,19.30
2022-11-04T18:29:04.628Z,19.33
2022-11-04T18:31:33.632Z,19.32
2022-11-04T18:34:02.183Z,19.31
2022-11-04T18:36:29.911Z,19.31
2022-11-04T18:38:57.388Z,19.30
2022-11-04T18:41:24.846Z,19.31
2022-11-04T18:43:52.932Z,19.30
2022-11-04T18:46:20.272Z,19.29
2022-11-04T18:48:49.190Z,19.29
2022-11-04T18:51:17.373Z,19.29
2022-11-04T18:53:45.335Z,19.28
2022-11-04T18:56:17.289Z,19.27
2022-11-04T18:58:47.622Z,19.29
2022-11-04T19:01:23.538Z,19.26
2022-11-04T19:03:51.028Z,19.28
2022-11-04T19:06:20.929Z,19.27
2022-11-04T19:08:50.473Z,19.28
2022-11-04T19:11:19.507Z,19.28
2022-11-04T19:13:51.747Z,19.28
2022-11-04T19:16:19.191Z,19.31
2022-11-04T19:18:49.347Z,19.31
2022-11-04T19:21:20.397Z,19.32
2022-11-04T19:23:48.034Z,19.32
2022-11-04T19:26:20.678Z,19.32
2022-11-04T19:28:48.950Z,19.33
2022-11-04T19:31:18.500Z,19.31
2022-11-04T19:33:46.398Z,19.31
2022-11-04T19:36:14.868Z,19.29
2022-11-04T19:38:43.704Z,19.30
2022-11-04T19:41:34.288Z,19.29
2022-11-04T19:44:02.666Z,19.29
2022-11-04T19:46:30.041Z,19.29
2022-11-04T19:48:57.582Z,19.27
2022-11-04T19:51:30.713Z,19.28
2022-11-04T19:53:59.396Z,19.29
2022-11-04T19:56:26.830Z,19.28
2022-11-04T19:58:54.315Z,19.24
2022-11-04T20:01:21.878Z,19.21
2022-11-04T20:03:49.367Z,19.21
2022-11-04T20:06:17.026Z,19.20
2022-11-04T20:08:45.058Z,19.21
2022-11-04T20:11:13.198Z,19.20
2022-11-04T20:13:49.557Z,19.21
2022-11-04T20:16:19.568Z,19.21
2022-11-04T20:18:50.621Z,19.21
2022-11-04T20:21:19.283Z,19.20
2022-11-04T20:23:47.066Z,19.20
2022-11-04T20:26:20.435Z,19.20
2022-11-04T20:28:51.916Z,19.22
2022-11-04T20:31:21.027Z,19.21
2022-11-04T20:33:48.659Z,19.21
2022-11-04T20:36:17.231Z,19.20
2022-11-04T20:38:44.720Z,19.20
2022-11-04T20:41:18.588Z,19.19
2022-11-04T20:43:47.045Z,19.19
2022-11-04T20:46:21.594Z,19.18
2022-11-04T20:48:53.826Z,19.18
2022-11-04T20:51:23.647Z,19.17
2022-11-04T20:53:56.171Z,19.16
2022-11-04T20:56:24.615Z,19.16
2022-11-04T20:58:58.568Z,19.16
2022-11-04T21:01:32.088Z,19.12
2022-11-04T21:04:11.286Z,19.12
2022-11-04T21:06:39.093Z,19.10
2022-11-04T21:09:09.711Z,19.10
2022-11-04T21:11:39.018Z,19.11
2022-11-04T21:14:12.322Z,19.10
2022-11-04T21:16:39.799Z,19.11
2022-11-04T21:19:09.630Z,19.11
2022-11-04T21:21:37.102Z,19.13
2022-11-04T21:24:05.860Z,19.12
2022-11-04T21:26:34.398Z,19.13
2022-11-04T21:29:03.955Z,19.14
2022-11-04T21:31:31.889Z,19.13
2022-11-04T21:33:59.453Z,19.10
2022-11-04T21:36:27.774Z,19.10
2022-11-04T21:38:55.298Z,19.08
2022-11-04T21:41:25.155Z,19.04
2022-11-04T21:43:56.515Z,19.06
2022-11-04T21:46:24.151Z,19.09
2022-11-04T21:48:51.501Z,19.09
2022-11-04T21:51:20.855Z,19.08
2022-11-04T21:53:49.122Z,19.09
2022-11-04T21:56:18.526Z,19.08
2022-11-04T21:58:46.257Z,19.08
2022-11-04T22:01:15.906Z,19.08
2022-11-04T22:03:43.693Z,19.08
2022-11-04T22:06:12.731Z,19.08
2022-11-04T22:08:49.246Z,19.04
2022-11-04T22:11:21.472Z,19.07
2022-11-04T22:13:48.843Z,19.05
2022-11-04T22:16:20.703Z,19.05
2022-11-04T22:18:51.190Z,19.04
2022-11-04T22:21:18.788Z,19.04
2022-11-04T22:23:46.331Z,19.04
2022-11-04T22:26:16.144Z,19.01
2022-11-04T22:28:46.429Z,19.04
2022-11-04T22:31:17.799Z,19.02
2022-11-04T22:33:45.194Z,19.01
2022-11-04T22:36:14.381Z,18.96
2022-11-04T22:38:42.098Z,18.98
2022-11-04T22:41:12.663Z,19.00
2022-11-04T22:43:42.828Z,19.01
2022-11-04T22:46:19.377Z,18.99
2022-11-04T22:48:46.814Z,19.02
2022-11-04T22:51:14.410Z,18.99
2022-11-04T22:53:41.872Z,18.98
2022-11-04T22:56:10.209Z,18.97
2022-11-04T22:58:37.602Z,19.00
2022-11-04T23:01:07.787Z,19.02
2022-11-04T23:03:35.319Z,19.02
2022-11-04T23:06:03.632Z,19.02
2022-11-04T23:08:31.699Z,19.03
2022-11-04T23:11:27.941Z,19.01
2022-11-04T23:14:20.220Z,19.01
2022-11-04T23:17:07.900Z,19.03
2022-11-04T23:19:36.098Z,19.02
2022-11-04T23:22:22.100Z,19.02
2022-11-04T23:25:09.413Z,19.03
2022-11-04T23:27:55.618Z,19.02
2022-11-04T23:30:25.463Z,19.00
2022-11-04T23:33:03.380Z,18.98
2022-11-04T23:35:52.594Z,18.99
2022-11-04T23:38:20.108Z,18.98
2022-11-04T23:41:07.389Z,18.96
2022-11-04T23:43:35.375Z,18.97
2022-11-04T23:46:21.382Z,18.98
2022-11-04T23:49:07.298Z,18.99
2022-11-04T23:51:53.202Z,18.99
2022-11-04T23:54:39.372Z,19.00
2022-11-04T23:57:30.770Z,18.97
